createdAt,value
2022-08-31T00:00:38.005Z,20.32
2022-08-31T00:03:26.627Z,20.28
2022-08-31T00:05:59.964Z,20.24
2022-08-31T00:08:29.518Z,20.22
2022-08-31T00:10:57.410Z,20.19
2022-08-31T00:13:26.794Z,20.19
2022-08-31T00:15:56.149Z,20.22
2022-08-31T00:18:23.867Z,20.21
2022-08-31T00:20:51.634Z,20.26
2022-08-31T00:23:19.775Z,20.28
2022-08-31T00:25:50.057Z,20.33
2022-08-31T00:28:18.576Z,20.36
2022-08-31T00:30:47.288Z,20.40
2022-08-31T00:33:18.833Z,20.44
2022-08-31T00:35:49.860Z,20.46
2022-08-31T00:38:28.991Z,20.47
2022-08-31T00:41:04.430Z,20.49
2022-08-31T00:43:52.234Z,20.50
2022-08-31T00:46:44.772Z,20.48
2022-08-31T00:49:38.238Z,20.48
2022-08-31T00:52:15.091Z,20.48
2022-08-31T00:54:46.153Z,20.49
2022-08-31T00:57:15.342Z,20.47
2022-08-31T00:59:46.290Z,20.43
2022-08-31T01:02:15.239Z,20.40
2022-08-31T01:04:43.011Z,20.37
2022-08-31T01:07:10.766Z,20.35
2022-08-31T01:09:43.527Z,20.31
2022-08-31T01:12:12.737Z,20.27
2022-08-31T01:14:41.869Z,20.24
2022-08-31T01:17:09.833Z,20.25
2022-08-31T01:19:51.437Z,20.26
2022-08-31T01:22:39.282Z,20.27
2022-08-31T01:25:07.571Z,20.27
2022-08-31T01:27:37.020Z,20.31
2022-08-31T01:30:09.880Z,20.33
2022-08-31T01:32:39.445Z,20.35
2022-08-31T01:35:11.453Z,20.35
2022-08-31T01:37:37.766Z,20.34
2022-08-31T01:40:06.643Z,20.33
2022-08-31T01:42:36.919Z,20.32
2022-08-31T01:45:06.917Z,20.29
2022-08-31T01:47:35.061Z,20.25
2022-08-31T01:50:03.513Z,20.26
2022-08-31T01:52:33.699Z,20.25
2022-08-31T01:55:03.148Z,20.23
2022-08-31T01:57:33.587Z,20.19
2022-08-31T02:00:07.773Z,20.17
2022-08-31T02:02:44.988Z,20.14
2022-08-31T02:05:13.978Z,20.11
2022-08-31T02:07:42.450Z,20.09
2022-08-31T02:10:10.493Z,20.09
2022-08-31T02:12:38.867Z,20.10
2022-08-31T02:15:09.395Z,20.11
2022-08-31T02:17:36.951Z,20.13
2022-08-31T02:20:08.766Z,20.16
2022-08-31T02:22:39.458Z,20.16
2022-08-31T02:25:09.741Z,20.19
2022-08-31T02:27:38.496Z,20.19
2022-08-31T02:30:11.524Z,20.20
2022-08-31T02:32:39.138Z,20.27
2022-08-31T02:35:08.536Z,20.34
2022-08-31T02:37:37.024Z,20.33
2022-08-31T02:40:12.034Z,20.34
2022-08-31T02:42:53.201Z,20.32
2022-08-31T02:45:10.221Z,20.29
2022-08-31T02:47:38.523Z,20.24
2022-08-31T02:50:17.299Z,20.21
2022-08-31T02:52:46.749Z,20.18
2022-08-31T02:55:15.056Z,20.15
2022-08-31T02:57:42.862Z,20.11
2022-08-31T03:00:12.782Z,20.11
2022-08-31T03:02:40.814Z,20.09
2022-08-31T03:05:10.280Z,20.08
2022-08-31T03:07:38.973Z,20.04
2022-08-31T03:10:09.980Z,20.00
2022-08-31T03:12:38.074Z,19.98
2022-08-31T03:15:08.675Z,19.97
2022-08-31T03:17:36.528Z,19.97
2022-08-31T03:20:06.811Z,20.01
2022-08-31T03:22:35.386Z,20.06
2022-08-31T03:25:06.891Z,20.11
2022-08-31T03:27:36.722Z,20.17
2022-08-31T03:30:09.445Z,20.21
2022-08-31T03:32:38.820Z,20.23
2022-08-31T03:35:07.905Z,20.26
2022-08-31T03:37:35.503Z,20.26
2022-08-31T03:40:04.632Z,20.25
2022-08-31T03:42:32.894Z,20.21
2022-08-31T03:45:00.999Z,20.19
2022-08-31T03:47:31.050Z,20.17
2022-08-31T03:50:00.615Z,20.15
2022-08-31T03:52:31.032Z,20.12
2022-08-31T03:55:04.042Z,20.09
2022-08-31T03:57:31.742Z,20.06
2022-08-31T04:00:00.153Z,20.04
2022-08-31T04:02:43.702Z,19.99
2022-08-31T04:05:36.641Z,19.96
2022-08-31T04:08:14.390Z,19.93
2022-08-31T04:11:02.493Z,19.88
2022-08-31T04:13:49.254Z,19.88
2022-08-31T04:16:23.874Z,19.89
2022-08-31T04:18:51.605Z,19.90
2022-08-31T04:21:23.747Z,19.92
2022-08-31T04:23:53.593Z,19.96
2022-08-31T04:26:26.260Z,20.00
2022-08-31T04:28:54.527Z,20.05
2022-08-31T04:31:24.446Z,20.07
2022-08-31T04:33:53.030Z,20.10
2022-08-31T04:36:25.061Z,20.13
2022-08-31T04:38:58.116Z,20.16
2022-08-31T04:41:29.455Z,20.17
2022-08-31T04:44:00.038Z,20.19
2022-08-31T04:46:29.560Z,20.20
2022-08-31T04:48:58.297Z,20.20
2022-08-31T04:51:30.553Z,20.20
2022-08-31T04:53:58.626Z,20.20
2022-08-31T04:56:31.032Z,20.20
2022-08-31T04:59:09.303Z,20.18
2022-08-31T05:01:42.875Z,20.17
2022-08-31T05:04:29.756Z,20.15
2022-08-31T05:06:57.377Z,20.15
2022-08-31T05:09:26.699Z,20.14
2022-08-31T05:11:56.259Z,20.16
2022-08-31T05:14:25.531Z,20.21
2022-08-31T05:17:01.403Z,20.26
2022-08-31T05:19:31.537Z,20.31
2022-08-31T05:21:59.462Z,20.32
2022-08-31T05:24:27.395Z,20.35
2022-08-31T05:26:56.956Z,20.38
2022-08-31T05:29:26.097Z,20.42
2022-08-31T05:31:56.439Z,20.45
2022-08-31T05:34:24.476Z,20.48
2022-08-31T05:36:55.609Z,20.56
2022-08-31T05:39:25.456Z,20.66
2022-08-31T05:41:53.827Z,20.70
2022-08-31T05:44:21.539Z,20.73
2022-08-31T05:46:54.774Z,20.76
2022-08-31T05:49:20.643Z,20.79
2022-08-31T05:51:50.118Z,20.80
2022-08-31T05:54:19.061Z,20.80
2022-08-31T05:56:47.355Z,20.78
2022-08-31T05:59:15.509Z,20.77
2022-08-31T06:01:43.256Z,20.76
2022-08-31T06:04:14.333Z,20.74
2022-08-31T06:06:43.947Z,20.72
2022-08-31T06:09:16.329Z,20.71
2022-08-31T06:11:45.668Z,20.70
2022-08-31T06:14:15.314Z,20.71
2022-08-31T06:16:45.524Z,20.71
2022-08-31T06:19:16.435Z,20.75
2022-08-31T06:21:49.315Z,20.78
2022-08-31T06:24:19.683Z,20.83
2022-08-31T06:26:57.927Z,20.91
2022-08-31T06:29:30.452Z,20.98
2022-08-31T06:32:00.025Z,21.06
2022-08-31T06:34:29.192Z,21.15
2022-08-31T06:37:10.898Z,21.20
2022-08-31T06:39:45.203Z,21.23
2022-08-31T06:42:13.007Z,21.30
2022-08-31T06:44:49.698Z,21.36
2022-08-31T06:47:23.434Z,21.42
2022-08-31T06:49:49.037Z,21.45
2022-08-31T06:52:16.874Z,21.54
2022-08-31T06:54:46.519Z,21.58
2022-08-31T06:57:32.699Z,21.62
2022-08-31T07:00:20.419Z,21.65
2022-08-31T07:02:57.369Z,21.71
2022-08-31T07:05:20.081Z,21.73
2022-08-31T07:07:48.999Z,21.70
2022-08-31T07:10:18.713Z,21.63
2022-08-31T07:12:46.251Z,21.62
2022-08-31T07:15:14.430Z,21.56
2022-08-31T07:17:42.149Z,21.53
2022-08-31T07:20:11.205Z,21.47
2022-08-31T07:22:38.994Z,21.43
2022-08-31T07:25:26.293Z,21.43
2022-08-31T07:27:55.080Z,21.42
2022-08-31T07:30:23.571Z,21.43
2022-08-31T07:32:56.521Z,21.47
2022-08-31T07:35:22.079Z,21.50
2022-08-31T07:38:17.480Z,21.53
2022-08-31T07:41:04.004Z,21.59
2022-08-31T07:43:32.719Z,21.64
2022-08-31T07:46:01.328Z,21.71
2022-08-31T07:48:29.690Z,21.84
2022-08-31T07:50:59.832Z,21.85
2022-08-31T07:53:48.215Z,21.88
2022-08-31T07:56:19.504Z,21.90
2022-08-31T07:58:49.458Z,21.96
2022-08-31T08:01:18.637Z,21.99
2022-08-31T08:03:46.366Z,22.03
2022-08-31T08:06:35.995Z,22.04
2022-08-31T08:09:27.063Z,22.10
2022-08-31T08:11:46.484Z,22.15
2022-08-31T08:14:22.649Z,22.24
2022-08-31T08:16:55.285Z,22.31
2022-08-31T08:19:27.816Z,22.39
2022-08-31T08:21:56.686Z,22.47
2022-08-31T08:24:28.172Z,22.63
2022-08-31T08:27:06.142Z,22.76
2022-08-31T08:29:52.642Z,22.84
2022-08-31T08:32:23.217Z,22.89
2022-08-31T08:34:51.375Z,22.98
2022-08-31T08:37:27.210Z,23.01
2022-08-31T08:39:49.370Z,23.04
2022-08-31T08:42:23.744Z,23.06
2022-08-31T08:44:51.548Z,23.09
2022-08-31T08:47:24.063Z,23.16
2022-08-31T08:49:57.429Z,23.28
2022-08-31T08:52:43.155Z,23.39
2022-08-31T08:55:15.965Z,23.46
2022-08-31T08:57:45.588Z,23.44
2022-08-31T09:00:28.220Z,23.46
2022-08-31T09:03:46.309Z,23.54
2022-08-31T09:06:54.585Z,23.62
2022-08-31T09:09:39.335Z,23.70
2022-08-31T09:12:30.531Z,23.77
2022-08-31T09:15:34.000Z,23.86
2022-08-31T09:18:45.519Z,24.01
2022-08-31T09:21:29.106Z,24.10
2022-08-31T09:24:11.199Z,24.22
2022-08-31T09:27:07.133Z,24.33
2022-08-31T09:29:42.441Z,24.46
2022-08-31T09:32:24.852Z,24.54
2022-08-31T09:35:04.658Z,24.56
2022-08-31T09:37:40.637Z,24.61
2022-08-31T09:40:38.542Z,24.66
2022-08-31T09:43:34.053Z,24.66
2022-08-31T09:46:12.589Z,24.69
2022-08-31T09:48:57.756Z,24.88
2022-08-31T09:51:38.054Z,25.09
2022-08-31T09:54:35.064Z,25.40
2022-08-31T09:57:07.525Z,25.65
2022-08-31T09:59:48.083Z,26.01
2022-08-31T10:02:36.638Z,26.28
2022-08-31T10:05:09.977Z,26.49
2022-08-31T10:07:52.486Z,26.76
2022-08-31T10:10:31.479Z,26.92
2022-08-31T10:13:12.330Z,27.05
2022-08-31T10:15:53.435Z,27.05
2022-08-31T10:18:39.149Z,27.21
2022-08-31T10:21:11.182Z,27.06
2022-08-31T10:23:45.226Z,27.15
2022-08-31T10:26:35.397Z,27.28
2022-08-31T10:29:22.842Z,27.41
2022-08-31T10:31:50.722Z,27.52
2022-08-31T10:34:54.330Z,27.48
2022-08-31T10:37:53.211Z,27.50
2022-08-31T10:40:34.602Z,27.83
2022-08-31T10:43:23.523Z,28.17
2022-08-31T10:45:53.498Z,28.25
2022-08-31T10:48:25.663Z,27.85
2022-08-31T10:51:19.954Z,27.54
2022-08-31T10:54:12.635Z,27.29
2022-08-31T10:56:50.625Z,27.22
2022-08-31T10:59:42.102Z,27.26
2022-08-31T11:02:44.136Z,27.24
2022-08-31T11:05:33.037Z,27.15
2022-08-31T11:08:27.313Z,26.78
2022-08-31T11:10:57.619Z,26.30
2022-08-31T11:13:50.372Z,25.78
2022-08-31T11:16:42.058Z,25.39
2022-08-31T11:19:17.797Z,24.98
2022-08-31T11:22:20.884Z,24.56
2022-08-31T11:25:08.954Z,24.30
2022-08-31T11:27:50.927Z,24.10
2022-08-31T11:30:29.333Z,23.85
2022-08-31T11:33:02.604Z,23.67
2022-08-31T11:36:07.898Z,23.55
2022-08-31T11:39:02.631Z,23.43
2022-08-31T11:41:45.526Z,23.34
2022-08-31T11:44:41.713Z,23.26
2022-08-31T11:47:34.183Z,23.22
2022-08-31T11:50:06.499Z,23.13
2022-08-31T11:52:51.492Z,23.01
2022-08-31T11:55:23.823Z,22.87
2022-08-31T11:58:10.670Z,22.80
2022-08-31T12:00:54.062Z,22.73
2022-08-31T12:03:52.046Z,22.57
2022-08-31T12:06:33.271Z,22.40
2022-08-31T12:09:33.789Z,22.28
2022-08-31T12:12:42.394Z,22.12
2022-08-31T12:15:39.806Z,22.04
2022-08-31T12:18:43.533Z,21.98
2022-08-31T12:21:55.625Z,21.91
2022-08-31T12:25:13.654Z,21.92
2022-08-31T12:28:29.167Z,21.98
2022-08-31T12:30:57.174Z,22.04
2022-08-31T12:33:30.191Z,22.11
2022-08-31T12:36:19.264Z,22.15
2022-08-31T12:38:50.467Z,22.20
2022-08-31T12:41:21.144Z,22.28
2022-08-31T12:43:49.260Z,22.31
2022-08-31T12:46:52.684Z,22.33
2022-08-31T12:49:41.974Z,22.33
2022-08-31T12:52:27.252Z,22.31
2022-08-31T12:55:18.706Z,22.27
2022-08-31T12:58:29.020Z,22.13
2022-08-31T13:01:12.671Z,22.00
2022-08-31T13:03:46.361Z,21.91
2022-08-31T13:06:23.707Z,21.83
2022-08-31T13:08:54.094Z,21.76
2022-08-31T13:11:40.199Z,21.72
2022-08-31T13:14:22.222Z,21.68
2022-08-31T13:16:57.431Z,21.64
2022-08-31T13:19:32.556Z,21.60
2022-08-31T13:22:12.503Z,21.57
2022-08-31T13:24:53.748Z,21.59
2022-08-31T13:27:26.113Z,21.60
2022-08-31T13:29:58.018Z,21.59
2022-08-31T13:32:33.458Z,21.58
2022-08-31T13:35:07.805Z,21.61
2022-08-31T13:38:04.968Z,21.62
2022-08-31T13:40:36.737Z,21.58
2022-08-31T13:43:09.023Z,21.61
2022-08-31T13:45:54.079Z,21.64
2022-08-31T13:48:30.146Z,21.69
2022-08-31T13:51:15.603Z,21.73
2022-08-31T13:53:56.605Z,21.77
2022-08-31T13:56:50.895Z,21.80
2022-08-31T13:59:32.227Z,21.83
2022-08-31T14:02:18.683Z,21.84
2022-08-31T14:05:02.838Z,21.81
2022-08-31T14:07:43.626Z,21.79
2022-08-31T14:10:23.405Z,21.78
2022-08-31T14:13:07.246Z,21.82
2022-08-31T14:15:55.703Z,21.85
2022-08-31T14:18:28.057Z,21.92
2022-08-31T14:21:21.126Z,22.01
2022-08-31T14:24:03.310Z,22.13
2022-08-31T14:26:36.273Z,22.30
2022-08-31T14:29:09.581Z,22.45
2022-08-31T14:31:47.603Z,22.58
2022-08-31T14:34:34.678Z,22.71
2022-08-31T14:37:10.396Z,22.85
2022-08-31T14:39:42.709Z,23.00
2022-08-31T14:42:25.065Z,23.14
2022-08-31T14:45:03.483Z,23.34
2022-08-31T14:47:36.429Z,23.49
2022-08-31T14:50:07.335Z,23.68
2022-08-31T14:52:42.182Z,23.88
2022-08-31T14:55:11.490Z,24.05
2022-08-31T14:57:43.777Z,24.26
2022-08-31T15:00:18.470Z,24.43
2022-08-31T15:02:47.949Z,24.62
2022-08-31T15:05:16.634Z,24.77
2022-08-31T15:07:46.010Z,24.89
2022-08-31T15:10:13.799Z,24.94
2022-08-31T15:12:41.603Z,24.99
2022-08-31T15:15:10.569Z,25.05
2022-08-31T15:17:39.230Z,25.11
2022-08-31T15:20:09.819Z,25.15
2022-08-31T15:22:39.351Z,25.16
2022-08-31T15:25:12.386Z,25.08
2022-08-31T15:27:43.597Z,24.94
2022-08-31T15:30:15.481Z,24.79
2022-08-31T15:32:45.164Z,24.58
2022-08-31T15:35:19.719Z,24.37
2022-08-31T15:37:58.383Z,24.14
2022-08-31T15:40:38.638Z,23.93
2022-08-31T15:43:06.855Z,23.72
2022-08-31T15:45:35.177Z,23.54
2022-08-31T15:48:21.885Z,23.37
2022-08-31T15:50:55.402Z,23.22
2022-08-31T15:53:24.862Z,23.08
2022-08-31T15:55:52.584Z,22.91
2022-08-31T15:58:24.952Z,22.77
2022-08-31T16:00:50.240Z,22.65
2022-08-31T16:03:17.919Z,22.56
2022-08-31T16:05:45.952Z,22.49
2022-08-31T16:08:13.893Z,22.43
2022-08-31T16:10:45.245Z,22.39
2022-08-31T16:13:15.308Z,22.38
2022-08-31T16:15:51.603Z,22.37
2022-08-31T16:18:22.014Z,22.38
2022-08-31T16:20:51.304Z,22.40
2022-08-31T16:23:20.520Z,22.43
2022-08-31T16:25:49.498Z,22.44
2022-08-31T16:28:19.721Z,22.42
2022-08-31T16:30:48.294Z,22.39
2022-08-31T16:33:17.385Z,22.36
2022-08-31T16:35:45.196Z,22.33
2022-08-31T16:38:13.791Z,22.28
2022-08-31T16:40:42.108Z,22.21
2022-08-31T16:43:10.410Z,22.13
2022-08-31T16:45:40.446Z,22.09
2022-08-31T16:48:29.400Z,22.05
2022-08-31T16:50:55.974Z,22.01
2022-08-31T16:53:24.114Z,21.96
2022-08-31T16:55:52.777Z,21.91
2022-08-31T16:58:47.738Z,21.85
2022-08-31T17:00:54.206Z,21.81
2022-08-31T17:03:22.236Z,21.78
2022-08-31T17:05:52.276Z,21.75
2022-08-31T17:08:21.739Z,21.69
2022-08-31T17:10:50.878Z,21.65
2022-08-31T17:13:18.489Z,21.62
2022-08-31T17:15:46.152Z,21.63
2022-08-31T17:18:13.673Z,21.62
2022-08-31T17:20:41.551Z,21.66
2022-08-31T17:23:09.847Z,21.67
2022-08-31T17:25:37.459Z,21.70
2022-08-31T17:28:07.694Z,21.71
2022-08-31T17:30:38.990Z,21.73
2022-08-31T17:33:08.937Z,21.75
2022-08-31T17:35:36.800Z,21.76
2022-08-31T17:38:04.561Z,21.78
2022-08-31T17:40:32.556Z,21.76
2022-08-31T17:43:01.668Z,21.74
2022-08-31T17:45:29.561Z,21.72
2022-08-31T17:47:57.193Z,21.72
2022-08-31T17:50:24.942Z,21.70
2022-08-31T17:52:54.526Z,21.68
2022-08-31T17:55:22.405Z,21.66
2022-08-31T17:57:50.141Z,21.62
2022-08-31T18:00:18.160Z,21.57
2022-08-31T18:02:48.125Z,21.51
2022-08-31T18:05:15.941Z,21.47
2022-08-31T18:07:43.615Z,21.44
2022-08-31T18:10:12.101Z,21.42
2022-08-31T18:12:41.480Z,21.43
2022-08-31T18:15:12.194Z,21.44
2022-08-31T18:17:40.005Z,21.45
2022-08-31T18:20:11.735Z,21.46
2022-08-31T18:22:39.723Z,21.49
2022-08-31T18:25:08.463Z,21.51
2022-08-31T18:27:36.057Z,21.54
2022-08-31T18:30:06.541Z,21.57
2022-08-31T18:32:36.083Z,21.56
2022-08-31T18:35:07.486Z,21.58
2022-08-31T18:37:35.533Z,21.58
2022-08-31T18:40:22.459Z,21.53
2022-08-31T18:43:08.846Z,21.48
2022-08-31T18:45:39.551Z,21.44
2022-08-31T18:48:25.256Z,21.39
2022-08-31T18:50:36.648Z,21.31
2022-08-31T18:53:08.341Z,21.25
2022-08-31T18:55:34.880Z,21.23
2022-08-31T18:58:02.599Z,21.19
2022-08-31T19:00:32.389Z,21.12
2022-08-31T19:03:01.746Z,21.07
2022-08-31T19:05:31.045Z,21.03
2022-08-31T19:07:59.681Z,20.98
2022-08-31T19:10:27.524Z,20.95
2022-08-31T19:12:55.338Z,20.88
2022-08-31T19:15:25.548Z,20.84
2022-08-31T19:17:52.816Z,20.77
2022-08-31T19:20:20.396Z,20.75
2022-08-31T19:22:48.049Z,20.73
2022-08-31T19:25:18.259Z,20.71
2022-08-31T19:27:47.645Z,20.69
2022-08-31T19:30:15.403Z,20.69
2022-08-31T19:32:43.889Z,20.68
2022-08-31T19:35:11.766Z,20.64
2022-08-31T19:37:40.047Z,20.62
2022-08-31T19:40:11.351Z,20.61
2022-08-31T19:42:40.475Z,20.60
2022-08-31T19:45:40.653Z,20.56
2022-08-31T19:47:40.309Z,20.58
2022-08-31T19:50:13.601Z,20.58
2022-08-31T19:52:38.902Z,20.60
2022-08-31T19:55:09.520Z,20.59
2022-08-31T19:57:38.539Z,20.57
2022-08-31T20:00:09.801Z,20.55
2022-08-31T20:02:39.757Z,20.49
2022-08-31T20:05:08.499Z,20.42
2022-08-31T20:07:36.379Z,20.34
2022-08-31T20:10:05.197Z,20.27
2022-08-31T20:12:32.885Z,20.20
2022-08-31T20:15:00.594Z,20.16
2022-08-31T20:17:29.575Z,20.14
2022-08-31T20:19:59.158Z,20.09
2022-08-31T20:22:29.851Z,20.02
2022-08-31T20:24:57.745Z,19.97
2022-08-31T20:27:25.933Z,19.94
2022-08-31T20:29:53.961Z,19.98
2022-08-31T20:32:23.091Z,20.00
2022-08-31T20:34:52.504Z,19.99
2022-08-31T20:37:20.235Z,19.97
2022-08-31T20:39:48.055Z,19.91
2022-08-31T20:42:15.884Z,19.86
2022-08-31T20:44:45.254Z,19.81
2022-08-31T20:47:33.625Z,19.75
2022-08-31T20:50:06.183Z,19.69
2022-08-31T20:52:35.330Z,19.68
2022-08-31T20:55:05.858Z,19.62
2022-08-31T20:57:35.502Z,19.57
2022-08-31T21:00:09.106Z,19.56
2022-08-31T21:02:39.269Z,19.51
2022-08-31T21:05:37.410Z,19.45
2022-08-31T21:07:39.998Z,19.41
2022-08-31T21:10:09.034Z,19.35
2022-08-31T21:12:37.240Z,19.30
2022-08-31T21:15:08.565Z,19.25
2022-08-31T21:17:36.325Z,19.24
2022-08-31T21:20:05.507Z,19.21
2022-08-31T21:22:34.957Z,19.17
2022-08-31T21:25:04.699Z,19.13
2022-08-31T21:27:32.555Z,19.12
2022-08-31T21:30:07.727Z,19.10
2022-08-31T21:32:39.296Z,19.11
2022-08-31T21:35:10.694Z,19.09
2022-08-31T21:37:38.449Z,19.09
2022-08-31T21:40:07.879Z,19.10
2022-08-31T21:42:35.559Z,19.15
2022-08-31T21:45:03.793Z,19.17
2022-08-31T21:47:31.536Z,19.18
2022-08-31T21:49:59.553Z,19.16
2022-08-31T21:52:27.351Z,19.15
2022-08-31T21:54:55.064Z,19.09
2022-08-31T21:57:23.088Z,19.03
2022-08-31T21:59:50.800Z,19.00
2022-08-31T22:02:18.477Z,18.97
2022-08-31T22:04:46.328Z,18.92
2022-08-31T22:07:14.590Z,18.88
2022-08-31T22:09:43.047Z,18.88
2022-08-31T22:12:12.171Z,18.90
2022-08-31T22:14:40.705Z,18.90
2022-08-31T22:17:08.813Z,18.91
2022-08-31T22:19:39.183Z,18.90
2022-08-31T22:22:12.659Z,18.92
2022-08-31T22:24:42.119Z,18.94
2022-08-31T22:27:11.608Z,18.95
2022-08-31T22:29:40.397Z,18.95
2022-08-31T22:32:12.605Z,18.97
2022-08-31T22:34:42.385Z,19.00
2022-08-31T22:37:12.444Z,19.01
2022-08-31T22:39:41.890Z,19.00
2022-08-31T22:42:11.350Z,18.98
2022-08-31T22:44:40.192Z,18.94
2022-08-31T22:47:07.491Z,18.92
2022-08-31T22:49:34.947Z,18.89
2022-08-31T22:52:03.027Z,18.84
2022-08-31T22:54:30.674Z,18.83
2022-08-31T22:56:58.126Z,18.79
2022-08-31T22:59:27.724Z,18.78
2022-08-31T23:01:59.566Z,18.73
2022-08-31T23:04:29.605Z,18.66
2022-08-31T23:06:58.558Z,18.62
2022-08-31T23:09:29.942Z,18.59
2022-08-31T23:12:00.594Z,18.57
2022-08-31T23:14:29.677Z,18.60
2022-08-31T23:17:00.306Z,18.61
2022-08-31T23:19:34.545Z,18.62
2022-08-31T23:22:06.980Z,18.70
2022-08-31T23:24:41.685Z,18.75
2022-08-31T23:27:11.225Z,18.80
2022-08-31T23:29:47.361Z,18.84
2022-08-31T23:32:18.827Z,18.87
2022-08-31T23:34:50.228Z,18.90
2022-08-31T23:37:19.289Z,18.89
2022-08-31T23:39:46.640Z,18.86
2022-08-31T23:42:16.421Z,18.82
2022-08-31T23:44:47.108Z,18.77
2022-08-31T23:47:19.742Z,18.72
2022-08-31T23:49:50.684Z,18.71
2022-08-31T23:52:22.275Z,18.69
2022-08-31T23:54:53.911Z,18.67
2022-08-31T23:57:32.358Z,18.66
2022-08-31T23:59:53.083Z,18.65
